Bargaintown, New Jersey
Current Conditions -  °F | °C
As of 12:54 AM on Tuesday 27 Jan 2015 (Local Time) from KACY Reporting Station
Light Snow Light Snow  
Wind Chill: 16°   Ceiling: 2200
Heat Index: 28°   Visibility: 2mi
Dew Point: 24°   Wind: 16mph
Humidity: 85%   Direction: 360°N
Pressure: 29.62"   Gusts: NA
Location:  39.365°N, 74.6283°W
Report Text: KACY 270554Z 36014KT 2SM -SN BR SCT015 OVC022 M02/M04 A2962 RMK AO2 PK WND 36026/0524 SNB0459 SLP029 P0000 60000 T10221044 10000 21022 58000
Loading
Personal Weather Stations






























Interactive Weather Map New forecast layout! Learn more

10-Day Weather Forecast

Advertisements
Track Severe Weather on mobile